createdAt,value
2018-05-06T00:00:16.986Z,1014.31
2018-05-06T00:01:22.506Z,1014.31
2018-05-06T00:02:28.018Z,1014.32
2018-05-06T00:03:33.533Z,1014.27
2018-05-06T00:04:39.047Z,1014.25
2018-05-06T00:05:44.561Z,1014.24
2018-05-06T00:06:50.073Z,1014.22
2018-05-06T00:07:55.584Z,1014.20
2018-05-06T00:09:01.106Z,1014.22
2018-05-06T00:10:06.617Z,1014.21
2018-05-06T00:11:12.173Z,1014.18
2018-05-06T00:12:17.639Z,1014.21
2018-05-06T00:13:23.164Z,1014.18
2018-05-06T00:14:28.670Z,1014.22
2018-05-06T00:15:34.185Z,1014.16
2018-05-06T00:16:39.704Z,1014.19
2018-05-06T00:17:45.213Z,1014.16
2018-05-06T00:18:50.724Z,1014.18
2018-05-06T00:19:56.237Z,1014.15
2018-05-06T00:21:01.764Z,1014.14
2018-05-06T00:22:07.265Z,1014.11
2018-05-06T00:23:12.778Z,1014.14
2018-05-06T00:24:18.293Z,1014.14
2018-05-06T00:25:23.808Z,1014.14
2018-05-06T00:26:29.320Z,1014.10
2018-05-06T00:27:34.836Z,1014.10
2018-05-06T00:28:40.348Z,1014.10
2018-05-06T00:29:45.876Z,1014.10
2018-05-06T00:30:51.383Z,1014.11
2018-05-06T00:31:56.901Z,1014.08
2018-05-06T00:33:02.409Z,1014.08
2018-05-06T00:34:07.916Z,1014.09
2018-05-06T00:35:13.439Z,1014.10
2018-05-06T00:36:18.944Z,1014.12
2018-05-06T00:37:24.456Z,1014.04
2018-05-06T00:38:29.979Z,1014.08
2018-05-06T00:39:35.486Z,1014.02
2018-05-06T00:40:40.996Z,1014.02
2018-05-06T00:41:46.516Z,1014.01
2018-05-06T00:42:52.024Z,1014.03
2018-05-06T00:43:57.543Z,1014.07
2018-05-06T00:45:03.057Z,1014.02
2018-05-06T00:46:08.564Z,1014.04
2018-05-06T00:47:14.080Z,1014.09
2018-05-06T00:48:19.592Z,1014.06
2018-05-06T00:49:25.106Z,1014.05
2018-05-06T00:50:30.647Z,1014.03
2018-05-06T00:51:36.168Z,1014.09
2018-05-06T00:52:41.648Z,1014.05
2018-05-06T00:53:47.162Z,1014.07
2018-05-06T00:54:52.679Z,1014.05
2018-05-06T00:55:58.187Z,1014.09
2018-05-06T00:57:03.697Z,1014.05
2018-05-06T00:58:09.213Z,1014.01
2018-05-06T00:59:14.732Z,1014.07
2018-05-06T01:00:20.237Z,1014.07
2018-05-06T01:01:25.756Z,1014.04
2018-05-06T01:02:31.270Z,1014.01
2018-05-06T01:03:36.775Z,1014.00
2018-05-06T01:04:42.293Z,1014.00
2018-05-06T01:05:47.817Z,1014.03
2018-05-06T01:06:53.316Z,1014.00
2018-05-06T01:07:58.830Z,1013.97
2018-05-06T01:09:04.344Z,1013.99
2018-05-06T01:10:09.854Z,1013.96
2018-05-06T01:11:15.379Z,1014.01
2018-05-06T01:12:20.909Z,1014.00
2018-05-06T01:13:26.397Z,1013.99
2018-05-06T01:14:31.910Z,1014.02
2018-05-06T01:15:37.422Z,1014.02
2018-05-06T01:16:42.944Z,1014.02
2018-05-06T01:17:48.449Z,1014.07
2018-05-06T01:18:53.962Z,1014.04
2018-05-06T01:19:59.485Z,1014.05
2018-05-06T01:21:04.986Z,1014.06
2018-05-06T01:22:10.555Z,1014.04
2018-05-06T01:23:16.024Z,1014.07
2018-05-06T01:24:21.523Z,1014.09
2018-05-06T01:25:27.043Z,1014.06
2018-05-06T01:26:32.546Z,1014.08
2018-05-06T01:27:38.063Z,1014.06
2018-05-06T01:28:43.573Z,1014.04
2018-05-06T01:29:49.085Z,1014.05
2018-05-06T01:30:54.604Z,1014.05
2018-05-06T01:32:00.111Z,1014.03
2018-05-06T01:33:05.626Z,1014.05
2018-05-06T01:34:11.137Z,1014.02
2018-05-06T01:35:16.661Z,1014.02
2018-05-06T01:36:22.167Z,1014.01
2018-05-06T01:37:27.675Z,1014.00
2018-05-06T01:38:33.185Z,1013.97
2018-05-06T01:39:38.716Z,1013.95
2018-05-06T01:40:44.216Z,1013.96
2018-05-06T01:41:49.729Z,1013.98
2018-05-06T01:42:55.239Z,1013.99
2018-05-06T01:44:00.749Z,1013.96
2018-05-06T01:45:06.268Z,1013.95
2018-05-06T01:46:11.777Z,1013.99
2018-05-06T01:47:17.303Z,1013.95
2018-05-06T01:48:22.800Z,1013.94
2018-05-06T01:49:28.315Z,1013.96
2018-05-06T01:50:33.826Z,1013.95
2018-05-06T01:51:39.342Z,1013.95
2018-05-06T01:52:44.850Z,1013.99
2018-05-06T01:53:50.361Z,1013.92
2018-05-06T01:54:55.874Z,1013.98
2018-05-06T01:56:01.386Z,1013.98
2018-05-06T01:57:06.914Z,1013.96
2018-05-06T01:58:12.421Z,1013.97
2018-05-06T01:59:17.927Z,1014.03
2018-05-06T02:00:23.439Z,1014.08
2018-05-06T02:01:28.948Z,1014.09
2018-05-06T02:02:34.464Z,1014.09
2018-05-06T02:03:39.973Z,1014.06
2018-05-06T02:04:45.560Z,1014.01
2018-05-06T02:05:50.998Z,1014.06
2018-05-06T02:06:56.511Z,1014.04
2018-05-06T02:08:02.026Z,1014.05
2018-05-06T02:09:07.549Z,1014.09
2018-05-06T02:10:13.054Z,1014.04
2018-05-06T02:11:18.571Z,1014.10
2018-05-06T02:12:24.072Z,1014.07
2018-05-06T02:13:29.583Z,1014.09
2018-05-06T02:14:35.102Z,1014.09
2018-05-06T02:15:40.619Z,1014.10
2018-05-06T02:16:46.139Z,1014.07
2018-05-06T02:17:51.656Z,1014.08
2018-05-06T02:18:57.148Z,1014.06
2018-05-06T02:20:02.699Z,1014.07
2018-05-06T02:21:08.171Z,1014.04
2018-05-06T02:22:13.683Z,1014.05
2018-05-06T02:23:19.195Z,1013.98
2018-05-06T02:24:24.709Z,1014.00
2018-05-06T02:25:30.224Z,1013.96
2018-05-06T02:26:35.733Z,1013.95
2018-05-06T02:27:41.248Z,1013.92
2018-05-06T02:28:46.835Z,1013.95
2018-05-06T02:29:52.266Z,1013.93
2018-05-06T02:30:57.780Z,1013.97
2018-05-06T02:32:03.290Z,1013.94
2018-05-06T02:33:08.807Z,1013.94
2018-05-06T02:34:14.322Z,1013.97
2018-05-06T02:35:19.827Z,1013.95
2018-05-06T02:36:25.348Z,1013.96
2018-05-06T02:37:30.849Z,1013.91
2018-05-06T02:38:36.368Z,1013.91
2018-05-06T02:39:41.878Z,1013.90
2018-05-06T02:40:47.386Z,1013.89
2018-05-06T02:41:52.900Z,1013.85
2018-05-06T02:42:58.409Z,1013.83
2018-05-06T02:44:03.925Z,1013.86
2018-05-06T02:45:09.470Z,1013.85
2018-05-06T02:46:14.955Z,1013.89
2018-05-06T02:47:20.461Z,1013.87
2018-05-06T02:48:25.971Z,1013.86
2018-05-06T02:49:31.486Z,1013.87
2018-05-06T02:50:37.025Z,1013.84
2018-05-06T02:51:42.516Z,1013.83
2018-05-06T02:52:48.017Z,1013.83
2018-05-06T02:53:53.575Z,1013.81
2018-05-06T02:54:59.044Z,1013.84
2018-05-06T02:56:04.568Z,1013.86
2018-05-06T02:57:10.068Z,1013.85
2018-05-06T02:58:15.591Z,1013.85
2018-05-06T02:59:21.091Z,1013.85
2018-05-06T03:00:26.602Z,1013.85
2018-05-06T03:01:32.115Z,1013.87
2018-05-06T03:02:37.624Z,1013.82
2018-05-06T03:03:43.136Z,1013.87
2018-05-06T03:04:48.650Z,1013.90
2018-05-06T03:05:54.162Z,1013.83
2018-05-06T03:06:59.674Z,1013.85
2018-05-06T03:08:05.180Z,1013.85
2018-05-06T03:09:10.691Z,1013.81
2018-05-06T03:10:16.210Z,1013.79
2018-05-06T03:11:21.724Z,1013.81
2018-05-06T03:12:27.244Z,1013.80
2018-05-06T03:13:32.740Z,1013.78
2018-05-06T03:14:38.251Z,1013.82
2018-05-06T03:15:43.761Z,1013.81
2018-05-06T03:16:49.283Z,1013.85
2018-05-06T03:17:54.787Z,1013.84
2018-05-06T03:19:00.298Z,1013.80
2018-05-06T03:20:05.811Z,1013.82
2018-05-06T03:21:11.328Z,1013.84
2018-05-06T03:22:16.850Z,1013.82
2018-05-06T03:23:22.356Z,1013.82
2018-05-06T03:24:27.856Z,1013.82
2018-05-06T03:25:33.369Z,1013.83
2018-05-06T03:26:38.884Z,1013.82
2018-05-06T03:27:44.395Z,1013.83
2018-05-06T03:28:49.902Z,1013.83
2018-05-06T03:29:55.414Z,1013.80
2018-05-06T03:31:00.925Z,1013.78
2018-05-06T03:32:06.434Z,1013.83
2018-05-06T03:33:12.034Z,1013.79
2018-05-06T03:34:17.572Z,1013.79
2018-05-06T03:35:22.970Z,1013.78
2018-05-06T03:36:28.487Z,1013.79
2018-05-06T03:37:33.996Z,1013.82
2018-05-06T03:38:39.543Z,1013.79
2018-05-06T03:39:45.028Z,1013.81
2018-05-06T03:40:50.532Z,1013.84
2018-05-06T03:41:56.041Z,1013.83
2018-05-06T03:43:01.554Z,1013.82
2018-05-06T03:44:07.065Z,1013.81
2018-05-06T03:45:12.597Z,1013.85
2018-05-06T03:46:18.088Z,1013.84
2018-05-06T03:47:23.597Z,1013.82
2018-05-06T03:48:29.110Z,1013.87
2018-05-06T03:49:34.627Z,1013.85
2018-05-06T03:50:40.140Z,1013.83
2018-05-06T03:51:45.643Z,1013.85
2018-05-06T03:52:51.156Z,1013.86
2018-05-06T03:53:56.666Z,1013.86
2018-05-06T03:55:02.176Z,1013.88
2018-05-06T03:56:07.692Z,1013.87
2018-05-06T03:57:13.213Z,1013.88
2018-05-06T03:58:18.709Z,1013.92
2018-05-06T03:59:24.222Z,1013.92
2018-05-06T04:00:29.834Z,1013.89
2018-05-06T04:01:35.247Z,1013.94
2018-05-06T04:02:40.765Z,1013.96
2018-05-06T04:03:46.270Z,1013.97
2018-05-06T04:04:51.783Z,1013.97
2018-05-06T04:05:57.295Z,1013.98
2018-05-06T04:07:02.814Z,1013.99
2018-05-06T04:08:08.312Z,1013.99
2018-05-06T04:09:13.824Z,1013.97
2018-05-06T04:10:19.346Z,1013.98
2018-05-06T04:11:24.848Z,1013.99
2018-05-06T04:12:30.362Z,1013.95
2018-05-06T04:13:35.884Z,1013.98
2018-05-06T04:14:41.386Z,1014.00
2018-05-06T04:15:46.900Z,1013.99
2018-05-06T04:16:52.403Z,1014.00
2018-05-06T04:17:57.916Z,1014.00
2018-05-06T04:19:03.518Z,1014.01
2018-05-06T04:20:08.941Z,1014.04
2018-05-06T04:21:14.498Z,1014.02
2018-05-06T04:22:19.968Z,1014.06
2018-05-06T04:23:25.477Z,1014.03
2018-05-06T04:24:30.985Z,1013.99
2018-05-06T04:25:36.494Z,1014.01
2018-05-06T04:26:42.050Z,1013.95
2018-05-06T04:27:47.516Z,1014.01
2018-05-06T04:28:53.027Z,1013.98
2018-05-06T04:29:58.539Z,1013.96
2018-05-06T04:31:04.057Z,1013.96
2018-05-06T04:32:09.565Z,1013.94
2018-05-06T04:33:15.077Z,1013.91
2018-05-06T04:34:20.590Z,1013.93
2018-05-06T04:35:26.096Z,1013.90
2018-05-06T04:36:31.608Z,1013.90
2018-05-06T04:37:37.120Z,1013.91
2018-05-06T04:38:42.637Z,1013.91
2018-05-06T04:39:48.149Z,1013.91
2018-05-06T04:40:53.651Z,1013.93
2018-05-06T04:41:59.168Z,1013.89
2018-05-06T04:43:04.673Z,1013.86
2018-05-06T04:44:10.206Z,1013.86
2018-05-06T04:45:15.708Z,1013.91
2018-05-06T04:46:21.215Z,1013.90
2018-05-06T04:47:26.725Z,1013.90
2018-05-06T04:48:32.249Z,1013.85
2018-05-06T04:49:37.753Z,1013.92
2018-05-06T04:50:43.266Z,1013.93
2018-05-06T04:51:48.877Z,1013.93
2018-05-06T04:52:54.278Z,1013.94
2018-05-06T04:53:59.809Z,1013.95
2018-05-06T04:55:05.300Z,1013.93
2018-05-06T04:56:10.815Z,1013.91
2018-05-06T04:57:16.326Z,1013.93
2018-05-06T04:58:21.838Z,1013.91
2018-05-06T04:59:27.350Z,1013.93
2018-05-06T05:00:32.857Z,1013.90
2018-05-06T05:01:38.369Z,1013.90
2018-05-06T05:02:43.880Z,1013.90
2018-05-06T05:03:49.393Z,1013.87
2018-05-06T05:04:54.903Z,1013.90
2018-05-06T05:06:00.420Z,1013.93
2018-05-06T05:07:05.930Z,1013.97
2018-05-06T05:08:11.437Z,1013.97
2018-05-06T05:09:16.949Z,1014.00
2018-05-06T05:10:22.459Z,1013.96
2018-05-06T05:11:27.979Z,1013.95
2018-05-06T05:12:33.482Z,1013.98
2018-05-06T05:13:38.994Z,1013.95
2018-05-06T05:14:44.507Z,1013.99
2018-05-06T05:15:50.023Z,1013.98
2018-05-06T05:16:55.540Z,1013.98
2018-05-06T05:18:01.048Z,1014.03
2018-05-06T05:19:06.556Z,1014.00
2018-05-06T05:20:12.066Z,1014.02
2018-05-06T05:21:17.577Z,1014.02
2018-05-06T05:22:23.096Z,1014.04
2018-05-06T05:23:28.611Z,1014.03
2018-05-06T05:24:34.125Z,1014.05
2018-05-06T05:25:39.632Z,1014.02
2018-05-06T05:26:45.141Z,1013.96
2018-05-06T05:27:50.654Z,1013.98
2018-05-06T05:28:56.161Z,1014.02
2018-05-06T05:30:01.670Z,1013.96
2018-05-06T05:31:07.191Z,1013.99
2018-05-06T05:32:12.704Z,1013.99
2018-05-06T05:33:18.210Z,1013.97
2018-05-06T05:34:23.803Z,1014.07
2018-05-06T05:35:29.235Z,1014.03
2018-05-06T05:36:34.742Z,1014.04
2018-05-06T05:37:40.265Z,1014.02
2018-05-06T05:38:45.767Z,1014.00
2018-05-06T05:39:51.291Z,1014.02
2018-05-06T05:40:56.792Z,1013.99
2018-05-06T05:42:02.303Z,1013.99
2018-05-06T05:43:07.817Z,1013.98
2018-05-06T05:44:13.327Z,1014.02
2018-05-06T05:45:18.838Z,1013.99
2018-05-06T05:46:24.356Z,1014.01
2018-05-06T05:47:29.867Z,1014.01
2018-05-06T05:48:35.378Z,1014.03
2018-05-06T05:49:40.888Z,1014.00
2018-05-06T05:50:46.399Z,1014.04
2018-05-06T05:51:51.919Z,1014.07
2018-05-06T05:52:57.431Z,1014.11
2018-05-06T05:54:02.938Z,1014.11
2018-05-06T05:55:08.455Z,1014.15
2018-05-06T05:56:13.968Z,1014.10
2018-05-06T05:57:19.473Z,1014.16
2018-05-06T05:58:24.988Z,1014.13
2018-05-06T05:59:30.503Z,1014.16
2018-05-06T06:00:36.017Z,1014.14
2018-05-06T06:01:41.528Z,1014.18
2018-05-06T06:02:47.048Z,1014.17
2018-05-06T06:03:52.572Z,1014.18
2018-05-06T06:04:58.064Z,1014.20
2018-05-06T06:06:03.577Z,1014.22
2018-05-06T06:07:09.088Z,1014.15
2018-05-06T06:08:14.600Z,1014.19
2018-05-06T06:09:20.113Z,1014.17
2018-05-06T06:10:25.626Z,1014.20
2018-05-06T06:11:31.146Z,1014.22
2018-05-06T06:12:36.657Z,1014.21
2018-05-06T06:13:42.186Z,1014.24
2018-05-06T06:14:47.689Z,1014.26
2018-05-06T06:15:53.191Z,1014.25
2018-05-06T06:16:58.717Z,1014.29
2018-05-06T06:18:04.218Z,1014.31
2018-05-06T06:19:09.731Z,1014.24
2018-05-06T06:20:15.243Z,1014.29
2018-05-06T06:21:20.757Z,1014.28
2018-05-06T06:22:26.269Z,1014.27
2018-05-06T06:23:31.781Z,1014.26
2018-05-06T06:24:37.354Z,1014.30
2018-05-06T06:25:42.815Z,1014.30
2018-05-06T06:26:48.327Z,1014.33
2018-05-06T06:27:53.837Z,1014.25
2018-05-06T06:28:59.356Z,1014.32
2018-05-06T06:30:04.862Z,1014.30
2018-05-06T06:31:10.383Z,1014.31
2018-05-06T06:32:15.891Z,1014.34
2018-05-06T06:33:21.413Z,1014.33
2018-05-06T06:34:26.925Z,1014.37
2018-05-06T06:35:32.433Z,1014.37
2018-05-06T06:36:37.944Z,1014.36
2018-05-06T06:37:43.461Z,1014.36
2018-05-06T06:38:49.008Z,1014.38
2018-05-06T06:39:54.498Z,1014.37
2018-05-06T06:41:00.007Z,1014.40
2018-05-06T06:42:05.515Z,1014.40
2018-05-06T06:43:11.027Z,1014.40
2018-05-06T06:44:16.542Z,1014.44
2018-05-06T06:45:22.098Z,1014.46
2018-05-06T06:46:27.565Z,1014.43
2018-05-06T06:47:33.082Z,1014.41
2018-05-06T06:48:38.595Z,1014.43
2018-05-06T06:49:44.106Z,1014.45
2018-05-06T06:50:49.642Z,1014.46
2018-05-06T06:51:55.141Z,1014.49
2018-05-06T06:53:00.650Z,1014.49
2018-05-06T06:54:06.168Z,1014.49
2018-05-06T06:55:11.682Z,1014.50
2018-05-06T06:56:17.193Z,1014.49
2018-05-06T06:57:22.710Z,1014.50
2018-05-06T06:58:28.223Z,1014.50
2018-05-06T06:59:33.742Z,1014.48
2018-05-06T07:00:39.255Z,1014.49
2018-05-06T07:01:44.767Z,1014.52
2018-05-06T07:02:50.278Z,1014.52
2018-05-06T07:03:55.801Z,1014.51
2018-05-06T07:05:01.309Z,1014.53
2018-05-06T07:06:06.833Z,1014.55
2018-05-06T07:07:12.336Z,1014.56
2018-05-06T07:08:17.848Z,1014.55
2018-05-06T07:09:23.367Z,1014.52
2018-05-06T07:10:28.876Z,1014.52
2018-05-06T07:11:34.394Z,1014.59
2018-05-06T07:12:39.912Z,1014.61
2018-05-06T07:13:45.426Z,1014.59
2018-05-06T07:14:50.948Z,1014.57
2018-05-06T07:15:56.449Z,1014.58
2018-05-06T07:17:01.965Z,1014.62
2018-05-06T07:18:07.480Z,1014.61
2018-05-06T07:19:13.016Z,1014.57
2018-05-06T07:20:18.511Z,1014.55
2018-05-06T07:21:24.026Z,1014.56
2018-05-06T07:22:29.544Z,1014.56
2018-05-06T07:23:35.057Z,1014.59
2018-05-06T07:24:40.575Z,1014.60
2018-05-06T07:25:46.083Z,1014.58
2018-05-06T07:26:51.600Z,1014.60
2018-05-06T07:27:57.116Z,1014.55
2018-05-06T07:29:02.626Z,1014.60
2018-05-06T07:30:08.144Z,1014.58
2018-05-06T07:31:13.668Z,1014.55
2018-05-06T07:32:19.174Z,1014.55
2018-05-06T07:33:24.688Z,1014.53
2018-05-06T07:34:30.208Z,1014.53
2018-05-06T07:35:35.722Z,1014.56
2018-05-06T07:36:41.264Z,1014.54
2018-05-06T07:37:46.745Z,1014.53
2018-05-06T07:38:52.264Z,1014.52
2018-05-06T07:39:57.778Z,1014.56
2018-05-06T07:41:03.291Z,1014.52
2018-05-06T07:42:08.810Z,1014.54
2018-05-06T07:43:14.323Z,1014.53
2018-05-06T07:44:19.838Z,1014.52
2018-05-06T07:45:25.355Z,1014.52
2018-05-06T07:46:30.869Z,1014.50
2018-05-06T07:47:36.385Z,1014.48
2018-05-06T07:48:41.902Z,1014.52
2018-05-06T07:49:47.417Z,1014.48
2018-05-06T07:50:52.931Z,1014.48
2018-05-06T07:51:58.445Z,1014.50
2018-05-06T07:53:03.968Z,1014.46
2018-05-06T07:54:09.502Z,1014.52
2018-05-06T07:55:14.990Z,1014.53
2018-05-06T07:56:20.507Z,1014.51
2018-05-06T07:57:26.028Z,1014.54
2018-05-06T07:58:31.535Z,1014.55
2018-05-06T07:59:37.055Z,1014.55
2018-05-06T08:00:42.569Z,1014.57
2018-05-06T08:01:48.088Z,1014.57
2018-05-06T08:02:53.602Z,1014.62
2018-05-06T08:03:59.188Z,1014.62
2018-05-06T08:05:04.636Z,1014.60
2018-05-06T08:06:10.149Z,1014.60
2018-05-06T08:07:15.667Z,1014.58
2018-05-06T08:08:21.177Z,1014.60
2018-05-06T08:09:26.697Z,1014.61
2018-05-06T08:10:32.211Z,1014.60
2018-05-06T08:11:37.811Z,1014.61
2018-05-06T08:12:43.243Z,1014.59
2018-05-06T08:13:48.756Z,1014.62
2018-05-06T08:14:54.282Z,1014.63
2018-05-06T08:15:59.790Z,1014.66
2018-05-06T08:17:05.314Z,1014.67
2018-05-06T08:18:10.818Z,1014.68
2018-05-06T08:19:16.345Z,1014.70
2018-05-06T08:20:21.856Z,1014.70
2018-05-06T08:21:27.366Z,1014.73
2018-05-06T08:22:32.888Z,1014.71
2018-05-06T08:23:38.402Z,1014.76
2018-05-06T08:24:43.914Z,1014.75
2018-05-06T08:25:49.430Z,1014.76
2018-05-06T08:26:54.949Z,1014.79
2018-05-06T08:28:00.465Z,1014.77
2018-05-06T08:29:05.983Z,1014.76
2018-05-06T08:30:11.512Z,1014.77
2018-05-06T08:31:17.016Z,1014.76
2018-05-06T08:32:22.527Z,1014.73
2018-05-06T08:33:28.048Z,1014.74
2018-05-06T08:34:33.560Z,1014.76
2018-05-06T08:35:39.082Z,1014.77
2018-05-06T08:36:44.593Z,1014.75
2018-05-06T08:37:50.127Z,1014.76
2018-05-06T08:38:55.628Z,1014.76
2018-05-06T08:40:01.146Z,1014.76
2018-05-06T08:41:06.661Z,1014.76
2018-05-06T08:42:12.195Z,1014.76
2018-05-06T08:43:17.692Z,1014.75
2018-05-06T08:44:23.248Z,1014.76
2018-05-06T08:45:28.727Z,1014.76
2018-05-06T08:46:34.258Z,1014.77
2018-05-06T08:47:39.756Z,1014.76
2018-05-06T08:48:45.273Z,1014.67
2018-05-06T08:49:50.797Z,1014.67
2018-05-06T08:50:56.305Z,1014.68
2018-05-06T08:52:01.828Z,1014.63
2018-05-06T08:53:07.337Z,1014.62
2018-05-06T08:54:12.855Z,1014.58
2018-05-06T08:55:18.374Z,1014.58
2018-05-06T08:56:23.887Z,1014.56
2018-05-06T08:57:29.418Z,1014.55
2018-05-06T08:58:34.926Z,1014.58
2018-05-06T08:59:40.458Z,1014.58
2018-05-06T09:00:45.958Z,1014.55
2018-05-06T09:01:51.476Z,1014.55
2018-05-06T09:02:57.009Z,1014.58
2018-05-06T09:04:02.508Z,1014.58
2018-05-06T09:05:08.034Z,1014.58
2018-05-06T09:06:13.538Z,1014.60
2018-05-06T09:07:19.056Z,1014.67
2018-05-06T09:08:24.577Z,1014.63
2018-05-06T09:09:30.094Z,1014.66
2018-05-06T09:10:35.625Z,1014.66
2018-05-06T09:11:41.124Z,1014.69
2018-05-06T09:12:46.646Z,1014.68
2018-05-06T09:13:52.164Z,1014.73
2018-05-06T09:14:57.738Z,1014.77
2018-05-06T09:16:03.195Z,1014.75
2018-05-06T09:17:08.763Z,1014.79
2018-05-06T09:18:14.234Z,1014.74
2018-05-06T09:19:19.758Z,1014.77
2018-05-06T09:20:25.262Z,1014.78
2018-05-06T09:21:30.783Z,1014.73
2018-05-06T09:22:36.306Z,1014.74
2018-05-06T09:23:41.818Z,1014.73
2018-05-06T09:24:47.339Z,1014.74
2018-05-06T09:25:52.859Z,1014.72
2018-05-06T09:26:58.369Z,1014.68
2018-05-06T09:28:03.902Z,1014.66
2018-05-06T09:29:09.418Z,1014.69
2018-05-06T09:30:14.930Z,1014.67
2018-05-06T09:31:20.442Z,1014.68
2018-05-06T09:32:26.049Z,1014.68
2018-05-06T09:33:31.479Z,1014.68
2018-05-06T09:34:36.997Z,1014.66
2018-05-06T09:35:42.535Z,1014.66
2018-05-06T09:36:48.039Z,1014.69
2018-05-06T09:37:53.568Z,1014.67
2018-05-06T09:38:59.078Z,1014.63
2018-05-06T09:40:04.589Z,1014.61
2018-05-06T09:41:10.169Z,1014.63
2018-05-06T09:42:15.619Z,1014.62
2018-05-06T09:43:21.156Z,1014.60
2018-05-06T09:44:26.655Z,1014.58
2018-05-06T09:45:32.176Z,1014.57
2018-05-06T09:46:37.691Z,1014.55
2018-05-06T09:47:43.438Z,1014.53
2018-05-06T09:48:48.741Z,1014.51
2018-05-06T09:49:54.245Z,1014.50
2018-05-06T09:50:59.760Z,1014.44
2018-05-06T09:52:05.330Z,1014.41
2018-05-06T09:53:10.825Z,1014.37
2018-05-06T09:54:16.326Z,1014.38
2018-05-06T09:55:21.841Z,1014.37
2018-05-06T09:56:27.351Z,1014.35
2018-05-06T09:57:32.870Z,1014.30
2018-05-06T09:58:38.407Z,1014.33
2018-05-06T09:59:43.911Z,1014.28
2018-05-06T10:00:49.425Z,1014.31
2018-05-06T10:01:54.953Z,1014.32
2018-05-06T10:03:00.472Z,1014.29
2018-05-06T10:04:05.979Z,1014.27
2018-05-06T10:05:11.507Z,1014.27
2018-05-06T10:06:17.019Z,1014.28
2018-05-06T10:07:22.535Z,1014.31
2018-05-06T10:08:28.066Z,1014.28
2018-05-06T10:09:33.578Z,1014.27
2018-05-06T10:10:39.098Z,1014.24
2018-05-06T10:11:44.630Z,1014.18
2018-05-06T10:12:50.136Z,1014.16
2018-05-06T10:13:55.643Z,1014.14
2018-05-06T10:15:01.170Z,1014.17
2018-05-06T10:16:06.688Z,1014.11
2018-05-06T10:17:12.200Z,1014.11
2018-05-06T10:18:17.719Z,1014.09
2018-05-06T10:19:23.238Z,1014.08
2018-05-06T10:20:28.765Z,1014.13
2018-05-06T10:21:34.276Z,1014.10
2018-05-06T10:22:39.793Z,1014.05
2018-05-06T10:23:45.318Z,1014.03
2018-05-06T10:24:50.835Z,1014.02
2018-05-06T10:25:56.353Z,1014.00
2018-05-06T10:27:01.876Z,1013.99
2018-05-06T10:28:07.472Z,1014.03
2018-05-06T10:29:12.903Z,1013.97
2018-05-06T10:30:18.428Z,1013.96
2018-05-06T10:31:23.953Z,1014.02
2018-05-06T10:32:29.575Z,1013.97
2018-05-06T10:33:34.983Z,1013.98
2018-05-06T10:34:40.514Z,1013.99
2018-05-06T10:35:46.034Z,1013.94
2018-05-06T10:36:51.550Z,1013.97
2018-05-06T10:37:57.135Z,1013.98
2018-05-06T10:39:02.592Z,1013.96
2018-05-06T10:40:08.149Z,1013.95
2018-05-06T10:41:13.618Z,1013.92
2018-05-06T10:42:19.175Z,1013.91
2018-05-06T10:43:24.658Z,1013.93
2018-05-06T10:44:30.202Z,1013.89
2018-05-06T10:45:35.694Z,1013.94
2018-05-06T10:46:41.249Z,1013.91
2018-05-06T10:47:46.748Z,1013.93
2018-05-06T10:48:52.257Z,1013.93
2018-05-06T10:49:57.784Z,1013.95
2018-05-06T10:51:03.302Z,1013.95
2018-05-06T10:52:08.827Z,1013.95
2018-05-06T10:53:14.373Z,1013.94
2018-05-06T10:54:19.865Z,1013.89
2018-05-06T10:55:25.441Z,1013.86
2018-05-06T10:56:30.891Z,1013.83
2018-05-06T10:57:36.422Z,1013.83
2018-05-06T10:58:41.935Z,1013.85
2018-05-06T10:59:47.542Z,1013.81
2018-05-06T11:00:52.969Z,1013.84
2018-05-06T11:01:58.502Z,1013.80
2018-05-06T11:03:04.039Z,1013.83
2018-05-06T11:04:09.609Z,1013.78
2018-05-06T11:05:15.050Z,1013.83
2018-05-06T11:06:20.698Z,1013.81
2018-05-06T11:07:26.091Z,1013.83
2018-05-06T11:08:31.615Z,1013.83
2018-05-06T11:09:37.129Z,1013.79
2018-05-06T11:10:42.649Z,1013.76
2018-05-06T11:11:48.179Z,1013.76
2018-05-06T11:12:53.695Z,1013.78
2018-05-06T11:13:59.213Z,1013.74
2018-05-06T11:15:04.735Z,1013.71
2018-05-06T11:16:10.253Z,1013.70
2018-05-06T11:17:15.767Z,1013.69
2018-05-06T11:18:21.291Z,1013.77
2018-05-06T11:19:26.809Z,1013.72
2018-05-06T11:20:32.327Z,1013.70
2018-05-06T11:21:37.871Z,1013.72
2018-05-06T11:22:43.379Z,1013.73
2018-05-06T11:23:48.895Z,1013.71
2018-05-06T11:24:54.406Z,1013.68
2018-05-06T11:25:59.949Z,1013.68
2018-05-06T11:27:05.463Z,1013.66
2018-05-06T11:28:10.976Z,1013.65
2018-05-06T11:29:16.497Z,1013.62
2018-05-06T11:30:22.014Z,1013.63
2018-05-06T11:31:27.538Z,1013.59
2018-05-06T11:32:33.050Z,1013.58
2018-05-06T11:33:38.575Z,1013.60
2018-05-06T11:34:44.089Z,1013.62
2018-05-06T11:35:49.619Z,1013.57
2018-05-06T11:36:55.134Z,1013.54
2018-05-06T11:38:00.661Z,1013.52
2018-05-06T11:39:06.176Z,1013.49
2018-05-06T11:40:11.707Z,1013.49
2018-05-06T11:41:17.221Z,1013.45
2018-05-06T11:42:22.736Z,1013.43
2018-05-06T11:43:28.267Z,1013.43
2018-05-06T11:44:33.776Z,1013.41
2018-05-06T11:45:39.306Z,1013.39
2018-05-06T11:46:44.832Z,1013.41
2018-05-06T11:47:50.345Z,1013.41
2018-05-06T11:48:55.871Z,1013.37
2018-05-06T11:50:01.382Z,1013.39
2018-05-06T11:51:06.918Z,1013.37
2018-05-06T11:52:12.426Z,1013.37
2018-05-06T11:53:17.941Z,1013.38
2018-05-06T11:54:23.462Z,1013.30
2018-05-06T11:55:28.998Z,1013.30
2018-05-06T11:56:34.507Z,1013.32
2018-05-06T11:57:40.026Z,1013.29
2018-05-06T11:58:45.545Z,1013.29
2018-05-06T11:59:51.073Z,1013.31
2018-05-06T12:00:56.586Z,1013.27
2018-05-06T12:02:02.130Z,1013.29
2018-05-06T12:03:07.626Z,1013.36
2018-05-06T12:04:13.154Z,1013.31
2018-05-06T12:05:18.687Z,1013.30
2018-05-06T12:06:24.203Z,1013.28
2018-05-06T12:07:29.722Z,1013.30
2018-05-06T12:08:35.236Z,1013.31
2018-05-06T12:09:40.758Z,1013.31
2018-05-06T12:10:46.280Z,1013.25
2018-05-06T12:11:51.798Z,1013.23
2018-05-06T12:12:57.318Z,1013.18
2018-05-06T12:14:02.848Z,1013.19
2018-05-06T12:15:08.367Z,1013.15
2018-05-06T12:16:13.885Z,1013.12
2018-05-06T12:17:19.401Z,1013.13
2018-05-06T12:18:24.918Z,1013.04
2018-05-06T12:19:30.448Z,1013.02
2018-05-06T12:20:36.035Z,1013.03
2018-05-06T12:21:41.515Z,1013.13
2018-05-06T12:22:47.051Z,1013.09
2018-05-06T12:23:52.709Z,1013.05
2018-05-06T12:24:58.111Z,1012.99
2018-05-06T12:26:03.788Z,1012.99
2018-05-06T12:27:09.157Z,1012.94
2018-05-06T12:28:14.683Z,1013.00
2018-05-06T12:29:20.185Z,1012.95
2018-05-06T12:30:25.689Z,1012.93
2018-05-06T12:31:31.286Z,1012.91
2018-05-06T12:32:36.743Z,1012.89
2018-05-06T12:33:42.288Z,1012.81
2018-05-06T12:34:47.781Z,1012.84
2018-05-06T12:35:53.292Z,1012.88
2018-05-06T12:36:58.833Z,1012.84
2018-05-06T12:38:04.420Z,1012.86
2018-05-06T12:39:09.869Z,1012.84
2018-05-06T12:40:15.445Z,1012.75
2018-05-06T12:41:20.894Z,1012.79
2018-05-06T12:42:26.404Z,1012.80
2018-05-06T12:43:32.043Z,1012.79
2018-05-06T12:44:37.427Z,1012.80
2018-05-06T12:45:42.950Z,1012.80
2018-05-06T12:46:48.474Z,1012.76
2018-05-06T12:47:53.991Z,1012.74
2018-05-06T12:48:59.517Z,1012.75
2018-05-06T12:50:05.041Z,1012.73
2018-05-06T12:51:10.557Z,1012.75
2018-05-06T12:52:16.095Z,1012.74
2018-05-06T12:53:21.604Z,1012.72
2018-05-06T12:54:27.126Z,1012.72
2018-05-06T12:55:32.643Z,1012.70
2018-05-06T12:56:38.158Z,1012.70
2018-05-06T12:57:43.681Z,1012.67
2018-05-06T12:58:49.206Z,1012.65
2018-05-06T12:59:54.728Z,1012.64
2018-05-06T13:01:00.249Z,1012.67
2018-05-06T13:02:05.769Z,1012.62
2018-05-06T13:03:11.292Z,1012.61
2018-05-06T13:04:16.813Z,1012.61
2018-05-06T13:05:22.337Z,1012.55
2018-05-06T13:06:27.851Z,1012.53
2018-05-06T13:07:33.372Z,1012.51
2018-05-06T13:08:38.894Z,1012.49
2018-05-06T13:09:44.427Z,1012.47
2018-05-06T13:10:49.935Z,1012.47
2018-05-06T13:11:55.462Z,1012.49